createdAt,value
2022-08-26T00:01:53.723Z,17.60
2022-08-26T00:04:21.508Z,17.60
2022-08-26T00:06:48.444Z,17.50
2022-08-26T00:09:15.898Z,17.50
2022-08-26T00:11:46.413Z,17.50
2022-08-26T00:14:14.960Z,17.40
2022-08-26T00:16:47.826Z,17.30
2022-08-26T00:19:17.814Z,17.30
2022-08-26T00:21:46.256Z,17.30
2022-08-26T00:24:15.961Z,17.30
2022-08-26T00:26:43.819Z,17.20
2022-08-26T00:29:12.366Z,17.30
2022-08-26T00:31:41.273Z,17.20
2022-08-26T00:34:11.281Z,17.20
2022-08-26T00:36:40.781Z,17.10
2022-08-26T00:39:08.040Z,17.20
2022-08-26T00:41:37.385Z,17.30
2022-08-26T00:44:05.599Z,17.30
2022-08-26T00:46:37.160Z,17.30
2022-08-26T00:49:22.543Z,17.40
2022-08-26T00:52:01.274Z,17.40
2022-08-26T00:54:37.740Z,17.30
2022-08-26T00:57:16.279Z,17.20
2022-08-26T00:59:46.502Z,17.20
2022-08-26T01:02:20.172Z,17.10
2022-08-26T01:04:55.490Z,17.00
2022-08-26T01:07:26.112Z,17.00
2022-08-26T01:09:53.489Z,17.10
2022-08-26T01:12:22.022Z,17.10
2022-08-26T01:14:50.095Z,17.10
2022-08-26T01:17:17.349Z,17.10
2022-08-26T01:19:49.048Z,17.20
2022-08-26T01:22:18.943Z,17.20
2022-08-26T01:24:46.603Z,17.30
2022-08-26T01:27:18.571Z,17.40
2022-08-26T01:29:48.843Z,17.50
2022-08-26T01:32:19.627Z,17.60
2022-08-26T01:34:47.908Z,17.70
2022-08-26T01:37:21.751Z,17.70
2022-08-26T01:39:55.728Z,17.70
2022-08-26T01:42:25.947Z,17.70
2022-08-26T01:45:06.988Z,17.70
2022-08-26T01:47:36.464Z,17.60
2022-08-26T01:50:09.354Z,17.60
2022-08-26T01:52:43.000Z,17.50
2022-08-26T01:55:15.323Z,17.40
2022-08-26T01:57:57.260Z,17.30
2022-08-26T02:00:24.980Z,17.30
2022-08-26T02:03:17.198Z,17.20
2022-08-26T02:05:54.966Z,17.20
2022-08-26T02:08:44.395Z,17.10
2022-08-26T02:11:12.121Z,17.00
2022-08-26T02:13:45.342Z,17.00
2022-08-26T02:16:13.249Z,17.10
2022-08-26T02:18:43.598Z,17.00
2022-08-26T02:21:17.064Z,17.00
2022-08-26T02:23:44.327Z,16.90
2022-08-26T02:26:22.430Z,16.90
2022-08-26T02:29:26.688Z,16.90
2022-08-26T02:31:55.789Z,16.80
2022-08-26T02:34:31.129Z,16.80
2022-08-26T02:37:00.694Z,16.90
2022-08-26T02:39:29.630Z,16.90
2022-08-26T02:41:57.725Z,16.80
2022-08-26T02:44:25.748Z,16.80
2022-08-26T02:46:54.184Z,16.80
2022-08-26T02:49:22.319Z,16.80
2022-08-26T02:51:49.847Z,16.70
2022-08-26T02:54:19.176Z,16.80
2022-08-26T02:56:46.057Z,16.70
2022-08-26T02:59:12.922Z,16.80
2022-08-26T03:01:40.789Z,16.70
2022-08-26T03:04:10.302Z,16.70
2022-08-26T03:06:37.650Z,16.70
2022-08-26T03:09:05.855Z,16.70
2022-08-26T03:11:33.449Z,16.70
2022-08-26T03:14:03.390Z,16.60
2022-08-26T03:16:37.561Z,16.60
2022-08-26T03:19:07.154Z,16.50
2022-08-26T03:21:35.711Z,16.50
2022-08-26T03:24:03.728Z,16.40
2022-08-26T03:26:31.051Z,16.40
2022-08-26T03:29:16.585Z,16.40
2022-08-26T03:31:43.673Z,16.40
2022-08-26T03:34:14.036Z,16.50
2022-08-26T03:36:41.896Z,16.50
2022-08-26T03:39:08.744Z,16.50
2022-08-26T03:41:36.696Z,16.40
2022-08-26T03:44:06.784Z,16.40
2022-08-26T03:46:33.907Z,16.40
2022-08-26T03:49:02.133Z,16.30
2022-08-26T03:51:29.102Z,16.30
2022-08-26T03:53:56.527Z,16.30
2022-08-26T03:56:24.015Z,16.30
2022-08-26T03:58:51.077Z,16.30
2022-08-26T04:01:17.990Z,16.30
2022-08-26T04:04:00.424Z,16.20
2022-08-26T04:06:33.766Z,16.00
2022-08-26T04:09:04.312Z,16.10
2022-08-26T04:11:34.333Z,16.10
2022-08-26T04:14:05.632Z,16.10
2022-08-26T04:16:32.546Z,16.20
2022-08-26T04:18:59.709Z,16.20
2022-08-26T04:21:27.518Z,16.20
2022-08-26T04:23:55.301Z,16.30
2022-08-26T04:26:22.965Z,16.30
2022-08-26T04:28:52.420Z,16.20
2022-08-26T04:31:19.992Z,16.30
2022-08-26T04:33:49.622Z,16.30
2022-08-26T04:36:17.576Z,16.30
2022-08-26T04:38:47.465Z,16.20
2022-08-26T04:41:15.349Z,16.20
2022-08-26T04:43:44.798Z,16.20
2022-08-26T04:46:14.310Z,16.20
2022-08-26T04:48:41.560Z,16.20
2022-08-26T04:51:09.932Z,16.20
2022-08-26T04:53:37.708Z,16.20
2022-08-26T04:56:05.408Z,16.10
2022-08-26T04:58:32.621Z,16.10
2022-08-26T05:00:59.901Z,16.10
2022-08-26T05:03:30.289Z,16.10
2022-08-26T05:05:58.567Z,16.20
2022-08-26T05:08:26.101Z,16.20
2022-08-26T05:10:56.370Z,16.20
2022-08-26T05:13:26.264Z,16.30
2022-08-26T05:15:53.672Z,16.30
2022-08-26T05:18:24.188Z,16.40
2022-08-26T05:20:54.652Z,16.40
2022-08-26T05:23:23.190Z,16.50
2022-08-26T05:25:58.373Z,16.60
2022-08-26T05:28:28.419Z,16.70
2022-08-26T05:30:56.055Z,16.80
2022-08-26T05:33:23.744Z,16.90
2022-08-26T05:35:51.090Z,17.00
2022-08-26T05:38:21.488Z,17.10
2022-08-26T05:40:52.859Z,17.20
2022-08-26T05:43:20.432Z,17.30
2022-08-26T05:45:49.934Z,17.40
2022-08-26T05:48:19.068Z,17.40
2022-08-26T05:50:53.007Z,17.40
2022-08-26T05:53:21.793Z,17.60
2022-08-26T05:55:51.395Z,17.70
2022-08-26T05:58:20.970Z,17.80
2022-08-26T06:01:04.595Z,17.90
2022-08-26T06:03:34.006Z,18.10
2022-08-26T06:06:06.838Z,18.20
2022-08-26T06:08:34.449Z,18.30
2022-08-26T06:11:04.401Z,18.40
2022-08-26T06:13:33.676Z,18.50
2022-08-26T06:16:05.797Z,18.60
2022-08-26T06:18:36.394Z,18.60
2022-08-26T06:21:19.415Z,18.80
2022-08-26T06:24:07.205Z,18.90
2022-08-26T06:26:35.794Z,19.00
2022-08-26T06:29:05.175Z,19.30
2022-08-26T06:31:34.376Z,19.40
2022-08-26T06:34:05.202Z,19.50
2022-08-26T06:36:35.025Z,19.60
2022-08-26T06:39:10.263Z,19.70
2022-08-26T06:41:42.783Z,19.90
2022-08-26T06:44:11.065Z,20.10
2022-08-26T06:46:38.780Z,20.20
2022-08-26T06:49:05.803Z,20.40
2022-08-26T06:51:35.969Z,20.50
2022-08-26T06:54:05.522Z,20.80
2022-08-26T06:56:44.168Z,21.00
2022-08-26T06:59:12.303Z,21.40
2022-08-26T07:01:44.836Z,21.80
2022-08-26T07:04:15.767Z,22.10
2022-08-26T07:06:49.319Z,22.30
2022-08-26T07:09:17.458Z,22.60
2022-08-26T07:11:44.779Z,22.80
2022-08-26T07:14:12.292Z,23.10
2022-08-26T07:16:41.218Z,23.30
2022-08-26T07:19:10.956Z,23.30
2022-08-26T07:21:38.707Z,23.60
2022-08-26T07:24:06.563Z,23.80
2022-08-26T07:26:33.606Z,24.10
2022-08-26T07:29:01.769Z,24.20
2022-08-26T07:31:39.300Z,24.60
2022-08-26T07:34:09.382Z,25.80
2022-08-26T07:36:36.777Z,27.30
2022-08-26T07:39:03.919Z,28.70
2022-08-26T07:41:30.893Z,30.20
2022-08-26T07:43:59.384Z,31.60
2022-08-26T07:46:27.284Z,32.10
2022-08-26T07:48:58.299Z,33.60
2022-08-26T07:51:28.000Z,35.50
2022-08-26T07:53:56.147Z,36.80
2022-08-26T07:56:23.552Z,36.60
2022-08-26T07:58:51.980Z,36.70
2022-08-26T08:01:21.740Z,36.90
2022-08-26T08:03:51.579Z,36.00
2022-08-26T08:06:20.320Z,36.70
2022-08-26T08:08:51.743Z,37.50
2022-08-26T08:11:22.985Z,38.30
2022-08-26T08:13:56.016Z,38.50
2022-08-26T08:16:28.680Z,38.00
2022-08-26T08:18:59.379Z,37.90
2022-08-26T08:21:28.028Z,38.40
2022-08-26T08:23:57.497Z,39.10
2022-08-26T08:26:26.269Z,39.50
2022-08-26T08:28:57.790Z,40.20
2022-08-26T08:31:56.107Z,40.90
2022-08-26T08:34:18.440Z,41.40
2022-08-26T08:36:48.863Z,41.30
2022-08-26T08:39:17.734Z,40.30
2022-08-26T08:41:54.720Z,39.90
2022-08-26T08:47:13.160Z,40.30
2022-08-26T08:49:40.385Z,40.90
2022-08-26T08:52:32.552Z,41.10
2022-08-26T08:55:00.850Z,41.70
2022-08-26T08:58:02.420Z,41.60
2022-08-26T09:00:41.405Z,41.40
2022-08-26T09:03:33.724Z,41.80
2022-08-26T09:06:02.043Z,43.10
2022-08-26T09:08:35.910Z,44.30
2022-08-26T09:11:04.452Z,43.80
2022-08-26T09:13:32.035Z,42.50
2022-08-26T09:16:06.941Z,42.50
2022-08-26T09:18:49.038Z,42.70
2022-08-26T09:21:19.180Z,43.00
2022-08-26T09:23:49.622Z,43.00
2022-08-26T09:26:29.273Z,42.70
2022-08-26T09:29:03.544Z,42.40
2022-08-26T09:31:34.318Z,43.10
2022-08-26T09:34:27.551Z,42.50
2022-08-26T09:36:55.919Z,42.40
2022-08-26T09:39:32.031Z,43.00
2022-08-26T09:42:23.127Z,42.40
2022-08-26T09:45:03.711Z,43.30
2022-08-26T09:47:39.863Z,44.70
2022-08-26T09:50:33.974Z,43.90
2022-08-26T09:53:28.843Z,44.80
2022-08-26T09:56:24.266Z,44.90
2022-08-26T09:58:53.523Z,43.90
2022-08-26T10:01:23.525Z,42.40
2022-08-26T10:03:51.543Z,43.20
2022-08-26T10:06:21.101Z,41.80
2022-08-26T10:08:52.342Z,42.60
2022-08-26T10:11:30.577Z,42.80
2022-08-26T10:14:10.224Z,43.70
2022-08-26T10:16:56.983Z,43.50
2022-08-26T10:19:56.640Z,43.50
2022-08-26T10:22:42.259Z,44.20
2022-08-26T10:25:16.056Z,44.00
2022-08-26T10:28:18.196Z,43.50
2022-08-26T10:31:21.466Z,42.90
2022-08-26T10:33:58.798Z,42.80
2022-08-26T10:37:10.568Z,43.20
2022-08-26T10:39:43.839Z,42.90
2022-08-26T10:42:24.397Z,43.90
2022-08-26T10:44:58.653Z,43.70
2022-08-26T10:47:37.391Z,42.10
2022-08-26T10:50:05.668Z,42.30
2022-08-26T10:52:48.900Z,42.00
2022-08-26T10:55:35.546Z,42.40
2022-08-26T10:58:26.685Z,43.00
2022-08-26T11:01:28.824Z,44.50
2022-08-26T11:04:12.152Z,43.70
2022-08-26T11:06:39.482Z,42.20
2022-08-26T11:09:10.075Z,41.10
2022-08-26T11:11:39.893Z,39.80
2022-08-26T11:14:10.887Z,39.00
2022-08-26T11:16:43.995Z,38.50
2022-08-26T11:19:58.983Z,37.40
2022-08-26T11:22:31.528Z,36.60
2022-08-26T11:24:58.978Z,36.70
2022-08-26T11:27:27.102Z,38.00
2022-08-26T11:30:19.622Z,38.70
2022-08-26T11:32:51.101Z,40.10
2022-08-26T11:35:17.896Z,40.60
2022-08-26T11:37:55.480Z,41.40
2022-08-26T11:40:27.066Z,41.80
2022-08-26T11:43:21.500Z,41.20
2022-08-26T11:46:00.376Z,41.60
2022-08-26T11:48:30.998Z,40.20
2022-08-26T11:51:02.449Z,39.10
2022-08-26T11:53:32.605Z,37.90
2022-08-26T11:56:04.217Z,37.80
2022-08-26T11:58:32.004Z,38.30
2022-08-26T12:01:03.907Z,39.60
2022-08-26T12:03:46.215Z,40.20
2022-08-26T12:06:37.423Z,40.10
2022-08-26T12:09:14.819Z,40.10
2022-08-26T12:11:42.029Z,39.70
2022-08-26T12:14:27.642Z,38.80
2022-08-26T12:16:55.152Z,38.70
2022-08-26T12:19:37.396Z,38.50
2022-08-26T12:22:20.933Z,37.80
2022-08-26T12:24:58.539Z,37.00
2022-08-26T12:27:31.421Z,36.10
2022-08-26T12:30:02.897Z,34.70
2022-08-26T12:32:31.489Z,34.70
2022-08-26T12:35:01.892Z,35.30
2022-08-26T12:37:35.161Z,35.50
2022-08-26T12:40:41.860Z,35.20
2022-08-26T12:43:09.995Z,35.00
2022-08-26T12:45:55.854Z,34.50
2022-08-26T12:48:31.828Z,33.90
2022-08-26T12:51:00.133Z,33.60
2022-08-26T12:53:32.657Z,32.50
2022-08-26T12:56:01.524Z,31.90
2022-08-26T12:58:31.746Z,31.60
2022-08-26T13:01:05.037Z,31.70
2022-08-26T13:03:35.099Z,32.10
2022-08-26T13:06:29.990Z,32.50
2022-08-26T13:09:22.916Z,32.90
2022-08-26T13:11:50.298Z,33.20
2022-08-26T13:14:23.982Z,33.40
2022-08-26T13:16:51.536Z,33.60
2022-08-26T13:19:22.045Z,33.80
2022-08-26T13:21:53.848Z,33.90
2022-08-26T13:24:32.925Z,33.70
2022-08-26T13:27:00.230Z,33.80
2022-08-26T13:29:28.637Z,33.10
2022-08-26T13:31:55.712Z,32.50
2022-08-26T13:34:23.519Z,32.00
2022-08-26T13:36:54.177Z,31.40
2022-08-26T13:39:22.627Z,31.00
2022-08-26T13:41:50.140Z,30.60
2022-08-26T13:44:17.411Z,30.20
2022-08-26T13:49:12.286Z,28.60
2022-08-26T13:51:39.633Z,27.80
2022-08-26T13:54:06.698Z,27.30
2022-08-26T13:56:34.062Z,26.60
2022-08-26T13:59:01.753Z,26.10
2022-08-26T14:01:33.135Z,25.90
2022-08-26T14:03:59.967Z,25.80
2022-08-26T14:06:26.932Z,25.80
2022-08-26T14:08:53.740Z,25.80
2022-08-26T14:11:21.518Z,25.80
2022-08-26T14:13:48.450Z,25.80
2022-08-26T14:16:26.220Z,25.80
2022-08-26T14:18:53.512Z,25.50
2022-08-26T14:21:20.885Z,25.10
2022-08-26T14:23:47.960Z,24.40
2022-08-26T14:26:28.226Z,23.80
2022-08-26T14:28:59.897Z,23.30
2022-08-26T14:31:29.322Z,23.10
2022-08-26T14:34:00.090Z,22.90
2022-08-26T14:36:31.370Z,22.80
2022-08-26T14:39:10.857Z,22.70
2022-08-26T14:41:54.368Z,22.30
2022-08-26T14:44:25.749Z,22.00
2022-08-26T14:46:54.512Z,21.90
2022-08-26T14:49:23.450Z,21.70
2022-08-26T14:51:50.817Z,21.40
2022-08-26T14:54:18.553Z,21.10
2022-08-26T14:56:54.876Z,21.00
2022-08-26T14:59:26.172Z,20.90
2022-08-26T15:01:54.362Z,21.00
2022-08-26T15:04:23.030Z,21.00
2022-08-26T15:06:50.979Z,21.10
2022-08-26T15:09:17.849Z,21.10
2022-08-26T15:11:45.140Z,21.20
2022-08-26T15:14:19.123Z,21.20
2022-08-26T15:16:51.659Z,21.20
2022-08-26T15:19:19.389Z,21.10
2022-08-26T15:21:47.505Z,21.00
2022-08-26T15:24:16.980Z,21.10
2022-08-26T15:26:45.025Z,21.10
2022-08-26T15:29:12.029Z,21.00
2022-08-26T15:31:39.046Z,21.00
2022-08-26T15:34:13.267Z,21.00
2022-08-26T15:36:44.851Z,21.00
2022-08-26T15:39:12.286Z,20.80
2022-08-26T15:41:39.825Z,20.80
2022-08-26T15:44:08.398Z,20.70
2022-08-26T15:46:36.408Z,20.60
2022-08-26T15:49:05.166Z,20.70
2022-08-26T15:51:35.558Z,20.70
2022-08-26T15:54:14.124Z,20.60
2022-08-26T15:56:41.019Z,20.70
2022-08-26T15:59:11.352Z,20.70
2022-08-26T16:01:38.326Z,20.70
2022-08-26T16:04:05.879Z,20.70
2022-08-26T16:06:36.045Z,20.70
2022-08-26T16:09:03.899Z,20.70
2022-08-26T16:11:31.272Z,20.70
2022-08-26T16:13:58.393Z,20.60
2022-08-26T16:16:25.284Z,20.70
2022-08-26T16:18:53.278Z,20.60
2022-08-26T16:21:22.739Z,20.60
2022-08-26T16:23:49.573Z,20.50
2022-08-26T16:26:19.904Z,20.50
2022-08-26T16:28:47.493Z,20.50
2022-08-26T16:31:15.443Z,20.50
2022-08-26T16:33:42.415Z,20.40
2022-08-26T16:36:10.386Z,20.30
2022-08-26T16:38:38.620Z,20.40
2022-08-26T16:41:06.246Z,20.40
2022-08-26T16:43:33.399Z,20.40
2022-08-26T16:46:02.065Z,20.40
2022-08-26T16:48:28.991Z,20.30
2022-08-26T16:50:55.883Z,20.30
2022-08-26T16:53:23.424Z,20.20
2022-08-26T16:55:51.495Z,20.20
2022-08-26T16:58:21.963Z,20.20
2022-08-26T17:00:49.565Z,20.20
2022-08-26T17:03:16.925Z,20.20
2022-08-26T17:05:44.566Z,20.30
2022-08-26T17:08:24.330Z,20.30
2022-08-26T17:10:55.936Z,20.30
2022-08-26T17:13:34.834Z,20.20
2022-08-26T17:16:07.515Z,20.30
2022-08-26T17:18:35.652Z,20.20
2022-08-26T17:21:08.590Z,20.20
2022-08-26T17:23:36.611Z,20.10
2022-08-26T17:26:03.494Z,20.10
2022-08-26T17:28:30.511Z,20.10
2022-08-26T17:30:58.621Z,20.10
2022-08-26T17:33:26.233Z,20.10
2022-08-26T17:35:54.036Z,20.20
2022-08-26T17:38:22.908Z,20.20
2022-08-26T17:40:50.492Z,20.20
2022-08-26T17:43:18.525Z,20.10
2022-08-26T17:45:45.519Z,20.10
2022-08-26T17:48:12.897Z,20.10
2022-08-26T17:50:41.695Z,20.10
2022-08-26T17:53:18.490Z,20.10
2022-08-26T17:55:47.441Z,20.10
2022-08-26T17:58:17.238Z,20.00
2022-08-26T18:00:46.540Z,20.00
2022-08-26T18:03:13.812Z,20.00
2022-08-26T18:05:42.616Z,19.90
2022-08-26T18:08:09.993Z,19.90
2022-08-26T18:10:36.873Z,19.90
2022-08-26T18:13:04.782Z,19.90
2022-08-26T18:15:31.688Z,19.90
2022-08-26T18:17:58.880Z,19.90
2022-08-26T18:20:26.310Z,19.80
2022-08-26T18:22:54.398Z,19.80
2022-08-26T18:25:21.521Z,19.80
2022-08-26T18:27:48.435Z,19.80
2022-08-26T18:30:18.447Z,19.80
2022-08-26T18:32:45.526Z,19.80
2022-08-26T18:35:13.605Z,19.80
2022-08-26T18:37:40.801Z,19.70
2022-08-26T18:40:12.434Z,19.70
2022-08-26T18:42:41.356Z,19.60
2022-08-26T18:45:10.205Z,19.60
2022-08-26T18:47:43.776Z,19.50
2022-08-26T18:50:11.284Z,19.50
2022-08-26T18:52:38.643Z,19.50
2022-08-26T18:55:05.916Z,19.50
2022-08-26T18:57:33.156Z,19.50
2022-08-26T19:00:00.037Z,19.50
2022-08-26T19:02:27.165Z,19.50
2022-08-26T19:04:57.507Z,19.50
2022-08-26T19:07:24.596Z,19.50
2022-08-26T19:09:53.896Z,19.40
2022-08-26T19:12:21.512Z,19.30
2022-08-26T19:14:48.698Z,19.40
2022-08-26T19:17:15.721Z,19.30
2022-08-26T19:19:43.688Z,19.20
2022-08-26T19:22:12.470Z,19.20
2022-08-26T19:24:39.560Z,19.20
2022-08-26T19:27:06.675Z,19.20
2022-08-26T19:29:35.659Z,19.20
2022-08-26T19:32:03.639Z,19.20
2022-08-26T19:34:31.728Z,19.20
2022-08-26T19:36:58.931Z,19.20
2022-08-26T19:39:26.635Z,19.20
2022-08-26T19:41:54.255Z,19.10
2022-08-26T19:44:41.596Z,19.20
2022-08-26T19:47:10.700Z,19.20
2022-08-26T19:49:39.154Z,19.20
2022-08-26T19:52:06.766Z,19.20
2022-08-26T19:54:35.558Z,19.20
2022-08-26T19:57:02.985Z,19.20
2022-08-26T19:59:29.960Z,19.20
2022-08-26T20:02:01.399Z,19.20
2022-08-26T20:04:30.929Z,19.30
2022-08-26T20:07:00.518Z,19.40
2022-08-26T20:09:29.241Z,19.30
2022-08-26T20:11:56.850Z,19.30
2022-08-26T20:14:25.147Z,19.30
2022-08-26T20:16:53.028Z,19.20
2022-08-26T20:19:38.968Z,19.20
2022-08-26T20:22:06.547Z,19.20
2022-08-26T20:24:33.628Z,19.10
2022-08-26T20:27:05.469Z,19.20
2022-08-26T20:29:35.602Z,19.10
2022-08-26T20:32:07.255Z,19.10
2022-08-26T20:34:35.552Z,19.20
2022-08-26T20:37:03.528Z,19.20
2022-08-26T20:39:30.433Z,19.20
2022-08-26T20:41:58.317Z,19.20
2022-08-26T20:44:26.038Z,19.10
2022-08-26T20:46:53.008Z,19.20
2022-08-26T20:49:19.957Z,19.20
2022-08-26T20:51:50.803Z,19.20
2022-08-26T20:54:19.461Z,19.20
2022-08-26T20:56:46.885Z,19.20
2022-08-26T20:59:14.245Z,19.20
2022-08-26T21:01:42.307Z,19.20
2022-08-26T21:04:13.071Z,19.20
2022-08-26T21:06:42.320Z,19.20
2022-08-26T21:09:16.710Z,19.30
2022-08-26T21:11:45.224Z,19.30
2022-08-26T21:14:16.260Z,19.30
2022-08-26T21:16:45.569Z,19.30
2022-08-26T21:19:16.116Z,19.30
2022-08-26T21:21:43.149Z,19.20
2022-08-26T21:24:10.601Z,19.20
2022-08-26T21:26:37.749Z,19.20
2022-08-26T21:29:06.729Z,19.10
2022-08-26T21:31:35.018Z,19.20
2022-08-26T21:34:01.991Z,19.10
2022-08-26T21:36:28.921Z,19.10
2022-08-26T21:38:59.903Z,19.10
2022-08-26T21:41:27.689Z,19.10
2022-08-26T21:43:59.082Z,19.00
2022-08-26T21:46:29.122Z,19.00
2022-08-26T21:49:01.395Z,19.00
2022-08-26T21:51:32.417Z,19.00
2022-08-26T21:54:00.808Z,19.00
2022-08-26T21:56:31.641Z,18.90
2022-08-26T21:58:59.700Z,18.90
2022-08-26T22:01:31.877Z,18.90
2022-08-26T22:03:59.153Z,18.90
2022-08-26T22:06:28.390Z,18.90
2022-08-26T22:08:56.337Z,18.80
2022-08-26T22:11:24.278Z,18.80
2022-08-26T22:13:51.850Z,18.80
2022-08-26T22:16:19.708Z,18.80
2022-08-26T22:18:46.894Z,18.90
2022-08-26T22:21:18.432Z,18.90
2022-08-26T22:23:45.723Z,18.80
2022-08-26T22:26:15.655Z,18.80
2022-08-26T22:28:58.663Z,18.80
2022-08-26T22:31:37.078Z,18.80
2022-08-26T22:34:07.192Z,18.90
2022-08-26T22:36:34.080Z,18.80
2022-08-26T22:39:01.440Z,18.80
2022-08-26T22:41:28.422Z,18.80
2022-08-26T22:44:02.651Z,18.70
2022-08-26T22:46:30.017Z,18.70
2022-08-26T22:48:57.631Z,18.70
2022-08-26T22:51:25.192Z,18.60
2022-08-26T22:53:52.043Z,18.50
2022-08-26T22:56:19.160Z,18.50
2022-08-26T22:58:46.119Z,18.50
2022-08-26T23:01:13.408Z,18.50
2022-08-26T23:03:40.341Z,18.50
2022-08-26T23:06:10.766Z,18.50
2022-08-26T23:08:39.375Z,18.50
2022-08-26T23:11:13.467Z,18.50
2022-08-26T23:13:41.032Z,18.40
2022-08-26T23:16:11.636Z,18.40
2022-08-26T23:18:40.717Z,18.40
2022-08-26T23:21:08.291Z,18.40
2022-08-26T23:23:35.439Z,18.40
2022-08-26T23:26:05.913Z,18.40
2022-08-26T23:28:33.892Z,18.40
2022-08-26T23:31:00.720Z,18.40
2022-08-26T23:33:47.838Z,18.40
2022-08-26T23:36:17.921Z,18.30
2022-08-26T23:38:47.643Z,18.30
2022-08-26T23:41:21.728Z,18.30
2022-08-26T23:43:49.025Z,18.30
2022-08-26T23:46:16.230Z,18.30
2022-08-26T23:48:43.241Z,18.30
2022-08-26T23:51:29.871Z,18.30
2022-08-26T23:53:57.909Z,18.30
2022-08-26T23:56:25.436Z,18.30
2022-08-26T23:58:53.963Z,18.30
